Time;durP1;ratioP1;P1;durP2;ratioP2;P2;SDS_P1;SDS_P2;PMS_P1;PMS_P2;Temp;Humidity;BMP_temperature;BMP_pressure;BME280_temperature;BME280_humidity;BME280_pressure;Samples;Min_cycle;Max_cycle;Signal;HPM_P1;HPM_P2
2021/10/27 00:02:18;;;;;;;12.03;8.60;;;11.90;1.70;;;;;;5048178;28;20468;-82
2021/10/27 00:04:44;;;;;;;10.10;8.20;;;12.00;1.00;;;;;;5049762;28;20584;-82
2021/10/27 00:07:09;;;;;;;11.40;8.10;;;12.00;7.90;;;;;;5049813;28;20308;-83
2021/10/27 00:09:36;;;;;;;10.57;8.07;;;12.00;7.20;;;;;;5051049;28;20206;-82
2021/10/27 00:12:01;;;;;;;12.83;9.00;;;12.00;4.80;;;;;;5057044;28;20261;-82
2021/10/27 00:14:27;;;;;;;11.77;9.60;;;12.00;7.40;;;;;;5050994;28;21025;-82
2021/10/27 00:16:53;;;;;;;9.97;8.53;;;12.00;9.40;;;;;;5048342;28;20437;-82
2021/10/27 00:19:19;;;;;;;9.43;8.00;;;12.00;19.20;;;;;;5048656;28;20186;-82
2021/10/27 00:21:44;;;;;;;9.50;8.10;;;12.00;22.30;;;;;;5047667;28;20637;-82
2021/10/27 00:24:11;;;;;;;16.00;9.73;;;12.00;37.50;;;;;;5053418;28;20209;-83
2021/10/27 00:26:36;;;;;;;12.10;8.50;;;12.00;32.70;;;;;;5045309;28;20833;-82
2021/10/27 00:29:02;;;;;;;10.70;8.53;;;12.00;29.50;;;;;;5047396;28;20448;-83
2021/10/27 00:31:28;;;;;;;10.93;7.37;;;12.00;53.60;;;;;;5043866;28;20320;-82
2021/10/27 00:33:53;;;;;;;14.50;8.23;;;12.00;74.10;;;;;;5052471;28;20186;-83
2021/10/27 00:36:19;;;;;;;11.47;8.43;;;12.00;57.80;;;;;;5048511;28;20197;-83
2021/10/27 00:38:46;;;;;;;11.70;8.30;;;12.00;74.70;;;;;;5048663;28;20194;-82
2021/10/27 00:41:11;;;;;;;10.83;8.30;;;12.00;87.00;;;;;;5047794;28;21996;-82
2021/10/27 00:43:37;;;;;;;14.70;7.50;;;12.00;99.90;;;;;;5048267;28;20503;-82
2021/10/27 00:46:04;;;;;;;10.13;7.93;;;12.00;98.00;;;;;;5051610;28;20187;-82
2021/10/27 00:48:30;;;;;;;10.23;8.03;;;12.00;99.90;;;;;;5047510;28;20842;-83
2021/10/27 00:50:55;;;;;;;8.93;7.87;;;12.10;99.90;;;;;;5049724;28;20453;-82
2021/10/27 00:53:22;;;;;;;10.23;8.50;;;12.10;93.40;;;;;;5046426;28;20258;-82
2021/10/27 00:55:48;;;;;;;11.00;7.90;;;12.10;98.80;;;;;;5065202;28;20444;-82
2021/10/27 00:58:14;;;;;;;15.33;7.77;;;12.10;99.90;;;;;;5050376;28;20877;-82
2021/10/27 01:00:41;;;;;;;11.60;7.23;;;12.10;96.80;;;;;;5045320;28;20464;-82
2021/10/27 01:03:07;;;;;;;8.13;7.30;;;12.10;90.70;;;;;;5044973;28;20504;-82
2021/10/27 01:05:33;;;;;;;12.30;8.60;;;12.10;71.20;;;;;;5046099;28;20548;-82
2021/10/27 01:07:59;;;;;;;9.80;7.83;;;12.10;66.90;;;;;;5048601;28;20179;-82
2021/10/27 01:10:25;;;;;;;8.97;6.60;;;12.10;55.70;;;;;;5050975;28;20209;-82
2021/10/27 01:12:50;;;;;;;9.43;7.47;;;12.20;45.60;;;;;;5048389;28;20449;-82
2021/10/27 01:15:16;;;;;;;11.50;8.10;;;12.20;37.30;;;;;;5050512;28;20202;-82
2021/10/27 01:17:42;;;;;;;10.03;7.00;;;12.20;27.00;;;;;;5048153;28;20187;-82
2021/10/27 01:20:08;;;;;;;13.13;8.27;;;12.20;23.10;;;;;;5048249;28;20984;-82
2021/10/27 01:22:39;;;;;;;11.10;7.37;;;12.20;27.50;;;;;;5050960;28;20206;-82
2021/10/27 01:25:07;;;;;;;11.23;7.97;;;12.20;27.40;;;;;;5047069;28;20452;-82
2021/10/27 01:27:42;;;;;;;11.63;7.23;;;12.20;32.30;;;;;;5044392;28;21056;-82
2021/10/27 01:30:13;;;;;;;12.03;6.07;;;12.20;35.70;;;;;;5042916;28;20457;-82
2021/10/27 01:32:40;;;;;;;13.30;7.50;;;12.20;35.10;;;;;;5051012;28;20464;-82
2021/10/27 01:35:07;;;;;;;8.67;7.33;;;12.20;27.20;;;;;;5046336;28;20452;-83
2021/10/27 01:37:37;;;;;;;10.40;7.97;;;12.20;28.20;;;;;;5047677;28;20448;-82
2021/10/27 01:40:11;;;;;;;10.60;7.63;;;12.20;37.10;;;;;;5050812;28;20452;-82
2021/10/27 01:42:37;;;;;;;14.80;8.20;;;12.20;41.20;;;;;;5044825;28;20488;-82
2021/10/27 01:45:04;;;;;;;10.20;8.00;;;12.30;47.10;;;;;;5049242;28;20457;-83
2021/10/27 01:47:30;;;;;;;10.20;6.30;;;12.20;40.80;;;;;;5049181;28;20174;-83
2021/10/27 01:49:56;;;;;;;9.40;6.97;;;12.30;35.80;;;;;;5044142;28;20444;-82
2021/10/27 01:52:22;;;;;;;14.13;8.07;;;12.30;34.00;;;;;;5048151;28;20649;-82
2021/10/27 01:54:47;;;;;;;8.40;6.20;;;12.30;39.80;;;;;;5041233;28;20191;-82
2021/10/27 01:57:13;;;;;;;6.90;6.20;;;12.30;43.20;;;;;;5046458;28;20189;-82
2021/10/27 01:59:39;;;;;;;7.33;6.40;;;12.30;41.50;;;;;;5046018;28;20214;-83
2021/10/27 02:02:05;;;;;;;8.83;7.40;;;12.30;45.70;;;;;;5042462;28;20946;-82
2021/10/27 02:04:31;;;;;;;9.97;7.00;;;12.30;54.90;;;;;;5047838;28;21001;-83
2021/10/27 02:06:58;;;;;;;11.30;6.83;;;12.30;51.40;;;;;;5050393;28;20529;-83
2021/10/27 02:09:23;;;;;;;7.60;6.03;;;12.30;55.50;;;;;;5048122;28;20535;-82
2021/10/27 02:11:49;;;;;;;15.23;7.47;;;12.30;44.40;;;;;;5047408;28;20186;-83
2021/10/27 02:14:16;;;;;;;11.30;7.60;;;12.30;39.40;;;;;;5047007;28;20288;-83
2021/10/27 02:16:42;;;;;;;7.67;6.83;;;12.30;36.80;;;;;;5047588;28;20540;-83
2021/10/27 02:19:09;;;;;;;8.20;7.30;;;12.30;41.60;;;;;;5040195;28;20436;-83
2021/10/27 02:21:35;;;;;;;13.07;7.80;;;12.30;39.50;;;;;;5041244;28;20825;-82
2021/10/27 02:24:01;;;;;;;8.40;6.60;;;12.40;33.90;;;;;;5044575;28;20477;-83
2021/10/27 02:26:27;;;;;;;13.73;7.40;;;12.40;30.00;;;;;;5046449;28;20460;-83
2021/10/27 02:28:53;;;;;;;9.00;6.63;;;12.40;23.20;;;;;;5046605;28;20194;-82
2021/10/27 02:31:19;;;;;;;8.83;7.77;;;12.40;33.20;;;;;;5041329;28;20447;-83
2021/10/27 02:33:45;;;;;;;10.60;8.00;;;12.40;33.80;;;;;;5048106;28;20553;-82
2021/10/27 02:36:11;;;;;;;10.73;7.63;;;12.40;29.00;;;;;;5049619;28;20445;-82
2021/10/27 02:38:37;;;;;;;8.10;6.73;;;12.50;22.60;;;;;;5046191;28;20889;-82
2021/10/27 02:41:04;;;;;;;9.67;7.07;;;12.40;22.80;;;;;;5049383;28;20179;-82
2021/10/27 02:43:29;;;;;;;8.63;7.57;;;12.40;28.60;;;;;;5052004;28;20229;-83
2021/10/27 02:45:55;;;;;;;13.57;7.37;;;12.40;27.50;;;;;;5048369;28;20453;-82
2021/10/27 02:48:22;;;;;;;9.37;6.87;;;12.50;22.90;;;;;;5048404;28;20203;-83
2021/10/27 02:50:50;;;;;;;11.30;7.43;;;12.40;28.40;;;;;;5044963;28;20440;-82
2021/10/27 02:53:16;;;;;;;11.90;7.30;;;12.40;31.10;;;;;;5047409;28;20452;-83
2021/10/27 02:55:41;;;;;;;10.70;7.20;;;12.40;36.60;;;;;;5048031;28;20201;-83
2021/10/27 02:58:07;;;;;;;8.47;6.90;;;12.40;22.50;;;;;;5047056;28;20609;-83
2021/10/27 03:00:33;;;;;;;9.80;8.20;;;12.40;20.10;;;;;;5043787;28;20274;-82
2021/10/27 03:02:59;;;;;;;13.30;7.80;;;12.50;17.80;;;;;;5051354;28;20263;-82
2021/10/27 03:05:25;;;;;;;11.13;7.87;;;12.40;19.80;;;;;;5050907;28;20843;-82
2021/10/27 03:07:51;;;;;;;10.43;6.67;;;12.40;21.40;;;;;;5049297;28;20191;-82
2021/10/27 03:10:17;;;;;;;13.50;8.27;;;12.50;19.90;;;;;;5046654;28;21200;-82
2021/10/27 03:12:44;;;;;;;16.10;7.70;;;12.40;23.80;;;;;;5052065;28;20870;-82
2021/10/27 03:15:10;;;;;;;14.80;7.60;;;12.40;22.20;;;;;;5047482;28;21348;-82
2021/10/27 03:17:37;;;;;;;10.20;8.43;;;12.50;10.70;;;;;;5050856;28;20503;-82
2021/10/27 03:20:03;;;;;;;16.23;9.97;;;12.50;4.90;;;;;;5052798;28;20463;-83
2021/10/27 03:22:28;;;;;;;11.90;8.73;;;12.50;1.00;;;;;;5053399;28;21040;-83
2021/10/27 03:24:54;;;;;;;14.27;7.70;;;12.50;1.00;;;;;;5048862;28;20536;-83
2021/10/27 03:27:19;;;;;;;14.93;8.13;;;12.50;1.00;;;;;;5054304;28;20178;-82
2021/10/27 03:29:45;;;;;;;9.47;8.33;;;12.50;1.00;;;;;;5044653;28;20194;-82
2021/10/27 03:32:11;;;;;;;12.53;9.00;;;12.50;1.00;;;;;;5045803;28;20549;-83
2021/10/27 03:34:37;;;;;;;11.97;8.20;;;12.50;1.00;;;;;;5050915;28;20589;-83
2021/10/27 03:37:04;;;;;;;11.80;7.73;;;12.50;1.00;;;;;;5054776;28;20578;-82
2021/10/27 03:39:29;;;;;;;9.10;7.10;;;12.60;1.00;;;;;;5049916;28;21193;-83
2021/10/27 03:41:55;;;;;;;8.53;6.80;;;12.60;1.00;;;;;;5050135;28;20460;-83
2021/10/27 03:44:21;;;;;;;12.03;7.73;;;12.50;1.00;;;;;;5051464;28;20741;-83
2021/10/27 03:46:47;;;;;;;10.00;6.80;;;12.50;1.00;;;;;;5054015;28;20182;-82
2021/10/27 03:49:13;;;;;;;11.17;6.93;;;12.50;1.00;;;;;;5053076;28;20483;-83
2021/10/27 03:51:38;;;;;;;7.97;6.30;;;12.50;1.00;;;;;;5049469;28;20194;-82
2021/10/27 03:54:04;;;;;;;10.17;5.90;;;12.60;1.00;;;;;;5052252;28;20182;-82
2021/10/27 03:56:30;;;;;;;10.43;6.60;;;12.50;1.00;;;;;;5048692;28;20206;-82
2021/10/27 03:58:56;;;;;;;11.90;5.90;;;12.60;1.00;;;;;;5046986;28;20807;-82
2021/10/27 04:01:21;;;;;;;8.37;6.40;;;12.60;1.00;;;;;;5047931;28;20437;-82
2021/10/27 04:03:47;;;;;;;14.90;7.00;;;12.60;1.00;;;;;;5050319;28;20206;-83
2021/10/27 04:06:13;;;;;;;11.00;6.77;;;12.60;1.00;;;;;;5050875;28;20178;-83
2021/10/27 04:08:39;;;;;;;9.80;5.37;;;12.60;1.00;;;;;;5048265;28;20198;-82
2021/10/27 04:11:05;;;;;;;8.33;5.50;;;12.60;1.00;;;;;;5049659;28;20436;-82
2021/10/27 04:13:31;;;;;;;10.13;6.10;;;12.60;1.00;;;;;;5053939;28;20460;-83
2021/10/27 04:15:57;;;;;;;6.63;5.13;;;12.60;1.00;;;;;;5044357;28;20229;-83
2021/10/27 04:18:23;;;;;;;9.10;5.03;;;12.60;1.00;;;;;;5049728;28;20942;-83
2021/10/27 04:20:48;;;;;;;10.80;5.70;;;12.60;1.00;;;;;;5050263;28;20201;-83
2021/10/27 04:23:14;;;;;;;8.93;6.63;;;12.60;1.00;;;;;;5048100;28;20238;-82
2021/10/27 04:25:40;;;;;;;8.83;4.97;;;12.60;1.00;;;;;;5054766;28;20182;-82
2021/10/27 04:28:06;;;;;;;8.37;6.20;;;12.60;1.00;;;;;;5048095;28;20187;-83
2021/10/27 04:30:33;;;;;;;13.10;6.37;;;12.60;1.00;;;;;;5053365;28;20198;-83
2021/10/27 04:32:59;;;;;;;8.30;6.03;;;12.60;1.00;;;;;;5053020;28;21276;-83
2021/10/27 04:35:25;;;;;;;8.20;5.20;;;12.60;1.00;;;;;;5055677;28;20459;-83
2021/10/27 04:37:51;;;;;;;10.03;5.53;;;12.60;1.00;;;;;;5054710;28;20441;-83
2021/10/27 04:40:18;;;;;;;13.63;5.77;;;12.60;1.00;;;;;;5052505;28;21100;-83
2021/10/27 04:42:45;;;;;;;13.77;6.30;;;12.60;1.00;;;;;;5054747;28;20219;-83
2021/10/27 04:45:11;;;;;;;10.90;6.47;;;12.60;1.00;;;;;;5055471;28;21000;-83
2021/10/27 04:47:38;;;;;;;9.73;5.60;;;12.60;1.00;;;;;;5053522;28;20484;-84
2021/10/27 04:50:05;;;;;;;9.30;5.30;;;12.60;1.00;;;;;;5044250;28;20463;-83
2021/10/27 04:52:31;;;;;;;9.00;4.73;;;12.50;1.00;;;;;;5052667;28;20452;-83
2021/10/27 04:54:57;;;;;;;8.70;5.33;;;12.50;1.00;;;;;;5050648;28;20451;-83
2021/10/27 04:57:23;;;;;;;8.60;4.73;;;12.50;1.00;;;;;;5049403;28;20967;-82
2021/10/27 04:59:48;;;;;;;7.70;5.20;;;12.50;1.00;;;;;;5048601;28;20475;-83
2021/10/27 05:02:16;;;;;;;11.83;5.10;;;12.60;1.00;;;;;;5052547;28;20210;-83
2021/10/27 05:04:43;;;;;;;14.70;5.90;;;12.60;1.00;;;;;;5052283;28;20550;-83
2021/10/27 05:07:12;;;;;;;8.87;5.13;;;12.60;1.00;;;;;;5057613;28;20448;-83
2021/10/27 05:09:39;;;;;;;12.90;5.17;;;12.60;1.00;;;;;;5053400;28;20559;-83
2021/10/27 05:12:05;;;;;;;7.13;4.50;;;12.60;1.00;;;;;;5054811;28;20822;-83
2021/10/27 05:14:32;;;;;;;7.13;4.30;;;12.60;1.00;;;;;;5052870;28;20925;-83
2021/10/27 05:16:58;;;;;;;8.67;4.53;;;12.60;1.00;;;;;;5049712;28;20499;-83
2021/10/27 05:19:23;;;;;;;8.40;5.10;;;12.60;1.00;;;;;;5049154;28;20588;-83
2021/10/27 05:21:50;;;;;;;8.10;5.50;;;12.60;1.00;;;;;;5054281;28;20605;-83
2021/10/27 05:24:16;;;;;;;6.60;4.60;;;12.60;1.00;;;;;;5052938;28;20530;-83
2021/10/27 05:26:42;;;;;;;7.53;5.23;;;12.60;1.00;;;;;;5045114;28;21173;-83
2021/10/27 05:29:08;;;;;;;7.70;4.23;;;12.60;1.00;;;;;;5043699;28;20265;-82
2021/10/27 05:31:34;;;;;;;9.43;4.87;;;12.60;1.00;;;;;;5047816;28;20832;-82
2021/10/27 05:34:00;;;;;;;4.23;3.80;;;12.60;1.00;;;;;;5050878;28;20451;-82
2021/10/27 05:36:26;;;;;;;8.60;5.03;;;12.50;1.00;;;;;;5056003;28;20247;-83
2021/10/27 05:38:52;;;;;;;7.07;3.80;;;12.60;1.00;;;;;;5052011;28;20453;-83
2021/10/27 05:41:18;;;;;;;4.40;4.00;;;12.60;1.00;;;;;;5055222;28;20552;-83
2021/10/27 05:43:45;;;;;;;7.57;4.93;;;12.60;1.00;;;;;;5057668;28;20217;-82
2021/10/27 05:46:12;;;;;;;12.03;3.73;;;12.60;1.00;;;;;;5058825;28;20202;-83
2021/10/27 05:48:42;;;;;;;8.50;3.80;;;12.50;1.00;;;;;;5051441;28;20444;-83
2021/10/27 05:56:22;;;;;;;11.20;3.33;;;12.60;1.00;;;;;;5055188;28;20210;-82
2021/10/27 05:58:48;;;;;;;10.47;3.90;;;12.60;1.00;;;;;;5057248;28;20480;-83
2021/10/27 06:01:14;;;;;;;6.20;3.73;;;12.60;1.00;;;;;;5042664;28;20907;-83
2021/10/27 06:03:40;;;;;;;5.23;4.50;;;12.60;1.00;;;;;;5043807;28;20477;-82
2021/10/27 06:06:06;;;;;;;7.67;3.70;;;12.60;1.00;;;;;;5047058;28;20559;-82
2021/10/27 06:08:32;;;;;;;7.30;3.80;;;12.60;1.00;;;;;;5052007;28;20808;-83
2021/10/27 06:11:05;;;;;;;9.33;3.60;;;12.60;1.00;;;;;;5050156;28;20655;-83
2021/10/27 06:13:34;;;;;;;8.80;4.13;;;12.60;1.00;;;;;;5050427;28;20197;-82
2021/10/27 06:16:00;;;;;;;6.63;3.90;;;12.60;1.00;;;;;;5049927;28;20488;-83
2021/10/27 06:18:26;;;;;;;4.93;3.83;;;12.60;1.00;;;;;;5049275;28;20448;-82
2021/10/27 06:20:52;;;;;;;7.13;3.60;;;12.60;1.00;;;;;;5044782;28;21152;-83
2021/10/27 06:23:18;;;;;;;4.90;3.73;;;12.60;1.00;;;;;;5041992;28;20465;-83
2021/10/27 06:25:44;;;;;;;8.87;4.10;;;12.60;1.00;;;;;;5048188;28;20186;-82
2021/10/27 06:28:13;;;;;;;9.80;3.90;;;12.60;1.00;;;;;;5047114;28;20359;-83
2021/10/27 06:30:53;;;;;;;5.60;3.90;;;12.60;1.00;;;;;;5049372;28;20529;-83
2021/10/27 06:46:56;;;;;;;12.33;3.40;;;12.70;1.00;;;;;;5046448;28;20501;-83
2021/10/27 06:49:22;;;;;;;8.00;3.57;;;12.70;1.00;;;;;;5049354;28;20878;-82
2021/10/27 06:51:48;;;;;;;4.80;3.43;;;12.70;1.00;;;;;;5052631;28;20556;-83
2021/10/27 06:54:14;;;;;;;4.50;3.23;;;12.70;1.00;;;;;;5052041;28;20440;-83
2021/10/27 06:56:40;;;;;;;9.30;3.73;;;12.70;1.00;;;;;;5050006;28;20506;-83
2021/10/27 07:15:04;;;;;;;7.67;3.03;;;12.80;1.00;;;;;;5053508;28;20445;-83
2021/10/27 07:17:32;;;;;;;8.97;3.00;;;12.90;1.00;;;;;;5054309;28;21052;-83
2021/10/27 07:19:59;;;;;;;9.33;3.03;;;12.90;1.00;;;;;;5053716;28;20437;-83
2021/10/27 07:22:25;;;;;;;10.30;3.47;;;12.90;1.00;;;;;;5055751;28;20436;-83
2021/10/27 07:24:51;;;;;;;7.07;3.10;;;12.90;1.00;;;;;;5053574;28;21072;-83
2021/10/27 07:27:18;;;;;;;6.50;3.10;;;12.90;1.00;;;;;;5053855;28;20550;-84
2021/10/27 07:29:45;;;;;;;5.40;2.57;;;12.90;1.00;;;;;;5055705;28;20648;-83
2021/10/27 07:32:14;;;;;;;4.60;2.67;;;13.00;1.00;;;;;;5068281;28;20578;-83
2021/10/27 07:34:44;;;;;;;6.30;3.53;;;13.00;1.00;;;;;;5054108;28;20860;-83
2021/10/27 07:42:41;;;;;;;3.80;3.00;;;12.90;1.00;;;;;;5047838;28;20850;-83
2021/10/27 07:45:07;;;;;;;5.57;2.83;;;12.90;1.00;;;;;;5052015;28;20475;-83
2021/10/27 07:47:33;;;;;;;4.77;3.27;;;12.90;1.00;;;;;;5053106;28;20449;-83
2021/10/27 07:49:58;;;;;;;8.80;3.87;;;12.90;1.00;;;;;;5053832;28;20877;-83
2021/10/27 07:52:24;;;;;;;6.00;3.30;;;12.90;1.00;;;;;;5056187;28;20211;-84
2021/10/27 07:54:53;;;;;;;5.17;3.17;;;12.90;1.00;;;;;;5054505;28;20189;-83
2021/10/27 07:57:20;;;;;;;3.70;2.90;;;12.90;1.00;;;;;;5050543;28;20506;-83
2021/10/27 07:59:46;;;;;;;5.33;3.70;;;12.90;1.00;;;;;;5053293;28;20432;-83
2021/10/27 08:02:11;;;;;;;8.67;3.33;;;13.00;1.00;;;;;;5052197;28;20710;-83
2021/10/27 08:04:37;;;;;;;5.07;2.87;;;13.00;1.00;;;;;;5050811;28;20198;-83
2021/10/27 08:07:03;;;;;;;5.67;3.27;;;12.90;1.00;;;;;;5054823;28;20182;-83
2021/10/27 08:09:29;;;;;;;4.17;3.03;;;13.00;1.00;;;;;;5052167;28;20209;-83
2021/10/27 08:11:55;;;;;;;8.27;3.70;;;12.90;1.00;;;;;;5054868;28;20453;-83
2021/10/27 08:14:20;;;;;;;9.63;3.40;;;12.90;1.00;;;;;;5048257;28;20182;-83
2021/10/27 08:16:47;;;;;;;6.27;3.57;;;12.90;1.00;;;;;;5040755;28;20203;-83
2021/10/27 08:19:13;;;;;;;10.20;3.60;;;12.90;1.00;;;;;;5045846;28;20291;-83
2021/10/27 08:21:40;;;;;;;4.97;3.60;;;12.90;1.00;;;;;;5049935;28;21154;-83
2021/10/27 08:24:08;;;;;;;8.67;3.47;;;12.80;1.00;;;;;;5044074;28;20326;-83
2021/10/27 08:26:34;;;;;;;4.50;2.83;;;12.80;1.00;;;;;;5043075;28;21245;-81
2021/10/27 08:29:00;;;;;;;5.67;4.03;;;12.80;1.00;;;;;;5049401;28;20576;-82
2021/10/27 08:31:40;;;;;;;6.40;3.47;;;12.90;1.00;;;;;;5044595;28;20237;-82
2021/10/27 08:36:32;;;;;;;7.13;3.20;;;12.90;1.00;;;;;;5050149;28;20533;-81
2021/10/27 08:38:59;;;;;;;6.53;3.10;;;12.90;1.00;;;;;;5050228;28;20186;-81
2021/10/27 08:41:26;;;;;;;8.50;3.00;;;12.90;1.00;;;;;;5053085;28;20347;-82
2021/10/27 08:43:52;;;;;;;9.63;3.23;;;12.90;1.00;;;;;;5050847;28;20476;-82
2021/10/27 08:46:18;;;;;;;4.93;3.33;;;12.90;1.00;;;;;;5051789;28;20969;-82
2021/10/27 08:48:50;;;;;;;4.33;3.40;;;13.00;1.00;;;;;;5052873;28;20551;-82
2021/10/27 08:51:17;;;;;;;6.10;3.23;;;12.90;1.00;;;;;;5048672;28;20460;-82
2021/10/27 08:53:42;;;;;;;5.07;3.50;;;12.90;1.00;;;;;;5047892;28;20445;-82
2021/10/27 08:56:09;;;;;;;5.23;2.80;;;13.00;1.00;;;;;;5049888;28;21239;-82
2021/10/27 08:58:53;;;;;;;4.67;3.13;;;13.00;1.00;;;;;;5046011;28;20186;-82
2021/10/27 09:06:57;;;;;;;4.37;2.80;;;13.00;1.00;;;;;;5050164;28;20540;-81
2021/10/27 09:39:01;;;;;;;11.93;3.30;;;13.20;1.00;;;;;;5051983;28;20424;-81
2021/10/27 09:55:40;;;;;;;4.90;2.97;;;13.30;1.00;;;;;;5050132;28;20444;-82
2021/10/27 10:06:37;;;;;;;10.83;3.23;;;13.30;1.00;;;;;;5043936;28;20509;-81
2021/10/27 10:09:03;;;;;;;8.53;3.17;;;13.30;1.00;;;;;;5054976;28;20448;-82
2021/10/27 10:11:30;;;;;;;6.60;3.33;;;13.40;1.00;;;;;;5048663;28;20456;-82
2021/10/27 10:13:58;;;;;;;7.40;3.70;;;13.40;1.00;;;;;;5048086;28;20801;-82
2021/10/27 10:16:24;;;;;;;4.53;3.30;;;13.40;1.00;;;;;;5052452;28;20821;-82
2021/10/27 10:18:51;;;;;;;5.70;3.70;;;13.40;1.00;;;;;;5052224;28;20477;-82
2021/10/27 10:21:25;;;;;;;4.60;2.90;;;13.40;1.00;;;;;;5051488;28;20544;-82
2021/10/27 10:24:28;;;;;;;4.87;3.37;;;13.40;1.00;;;;;;5047241;28;20533;-82
2021/10/27 10:27:00;;;;;;;10.10;3.20;;;13.40;1.00;;;;;;5050878;28;20468;-82
2021/10/27 10:29:39;;;;;;;6.70;3.60;;;13.40;1.00;;;;;;5054497;28;20601;-81
2021/10/27 10:32:21;;;;;;;6.23;3.10;;;13.50;1.00;;;;;;5054841;28;20471;-82
2021/10/27 10:34:53;;;;;;;7.30;3.20;;;13.60;1.00;;;;;;5049717;28;20909;-82
2021/10/27 10:37:34;;;;;;;6.53;3.20;;;13.70;1.00;;;;;;5054849;28;20456;-82
2021/10/27 10:40:24;;;;;;;5.77;2.70;;;13.80;1.00;;;;;;5055120;28;20907;-81
2021/10/27 10:42:57;;;;;;;6.10;2.90;;;13.80;1.00;;;;;;5051166;28;20472;-82
2021/10/27 10:58:12;;;;;;;4.60;2.90;;;14.20;1.00;;;;;;5051476;28;20460;-82
2021/10/27 11:25:55;;;;;;;7.20;3.00;;;14.70;1.00;;;;;;5052313;28;23040;-82
2021/10/27 11:37:36;;;;;;;5.47;3.00;;;15.10;1.00;;;;;;5049150;28;20448;-82
2021/10/27 11:40:10;;;;;;;4.23;3.43;;;15.20;1.00;;;;;;5053202;28;20459;-82
2021/10/27 11:42:50;;;;;;;6.67;2.77;;;15.20;1.00;;;;;;5047933;28;20563;-82
2021/10/27 11:48:04;;;;;;;3.60;2.80;;;15.20;1.00;;;;;;5043834;28;20463;-81
2021/10/27 11:50:34;;;;;;;8.00;2.80;;;15.30;1.00;;;;;;5042329;28;20873;-82
2021/10/27 11:53:05;;;;;;;4.90;3.47;;;15.30;1.00;;;;;;5048510;28;20465;-82
2021/10/27 11:55:37;;;;;;;9.27;2.87;;;15.30;1.00;;;;;;5052718;28;20565;-82
2021/10/27 11:58:04;;;;;;;6.50;2.70;;;15.30;1.00;;;;;;5050094;28;20456;-82
2021/10/27 12:00:47;;;;;;;3.73;2.53;;;15.40;1.00;;;;;;5047740;28;20542;-82
2021/10/27 12:03:18;;;;;;;3.60;2.63;;;15.40;1.00;;;;;;5048359;28;20468;-81
2021/10/27 12:05:59;;;;;;;5.40;2.67;;;15.40;1.00;;;;;;5047125;28;20448;-83
2021/10/27 12:11:17;;;;;;;5.10;2.47;;;15.60;1.00;;;;;;5049383;28;20465;-82
2021/10/27 12:13:51;;;;;;;3.27;2.30;;;15.70;1.00;;;;;;5049169;28;20477;-82
2021/10/27 12:19:28;;;;;;;4.50;2.20;;;15.90;1.00;;;;;;5048559;28;20451;-82
2021/10/27 12:22:05;;;;;;;8.00;2.37;;;15.80;1.00;;;;;;5043896;28;20452;-82
2021/10/27 12:24:36;;;;;;;3.53;2.30;;;15.80;1.00;;;;;;5050103;28;20831;-81
2021/10/27 12:27:16;;;;;;;3.03;1.90;;;15.80;1.00;;;;;;5048608;28;20829;-82
2021/10/27 12:29:42;;;;;;;6.53;2.40;;;15.90;1.00;;;;;;5046759;28;20448;-82
2021/10/27 12:32:13;;;;;;;4.07;2.40;;;16.00;1.00;;;;;;5040303;28;20473;-82
2021/10/27 12:35:07;;;;;;;4.50;2.50;;;15.90;1.00;;;;;;5041380;28;20453;-82
2021/10/27 12:37:44;;;;;;;4.80;2.37;;;15.90;1.00;;;;;;5045021;28;20480;-82
2021/10/27 12:40:23;;;;;;;9.53;2.83;;;16.00;1.00;;;;;;5061979;28;21037;-82
2021/10/27 12:43:04;;;;;;;4.40;2.20;;;16.00;1.00;;;;;;5046068;28;20480;-82
2021/10/27 12:45:51;;;;;;;5.30;2.43;;;16.00;1.00;;;;;;5046283;28;20445;-82
2021/10/27 12:48:19;;;;;;;4.60;2.83;;;16.00;1.00;;;;;;5050311;28;20471;-82
2021/10/27 12:50:59;;;;;;;7.10;2.20;;;16.10;1.00;;;;;;5045673;28;20436;-82
2021/10/27 12:53:36;;;;;;;8.70;2.60;;;16.20;1.00;;;;;;5054419;28;20460;-82
2021/10/27 12:56:17;;;;;;;4.53;2.77;;;16.10;1.00;;;;;;5053854;28;20812;-82
2021/10/27 12:58:49;;;;;;;10.17;2.50;;;16.00;1.00;;;;;;5050024;28;20449;-82
2021/10/27 13:09:38;;;;;;;8.20;2.43;;;15.80;1.00;;;;;;5052889;28;20557;-81
2021/10/27 13:33:21;;;;;;;4.30;2.27;;;16.00;1.00;;;;;;5046711;28;20444;-82
2021/10/27 13:35:47;;;;;;;7.33;3.47;;;16.00;1.00;;;;;;5049898;28;20647;-82
2021/10/27 13:38:14;;;;;;;6.93;3.60;;;16.00;1.00;;;;;;5049047;28;20449;-81
2021/10/27 13:40:43;;;;;;;5.13;3.23;;;15.90;1.00;;;;;;5051013;28;20452;-82
2021/10/27 13:46:14;;;;;;;6.77;3.40;;;15.90;1.00;;;;;;5040445;28;20441;-82
2021/10/27 13:49:00;;;;;;;4.47;2.80;;;15.90;1.00;;;;;;5042271;28;20452;-82
2021/10/27 14:08:01;;;;;;;9.33;3.20;;;15.60;1.00;;;;;;5037172;28;20449;-81
2021/10/27 14:10:34;;;;;;;7.10;3.90;;;15.60;1.00;;;;;;5044369;28;20488;-81
2021/10/27 14:13:12;;;;;;;12.10;4.33;;;15.60;1.00;;;;;;5041130;28;20436;-82
2021/10/27 15:21:25;;;;;;;5.97;2.90;;;15.10;1.00;;;;;;5055707;28;20937;-82
2021/10/27 15:23:56;;;;;;;4.07;2.00;;;15.10;1.00;;;;;;5045551;28;20498;-82
2021/10/27 15:37:00;;;;;;;8.80;5.27;;;14.80;1.00;;;;;;5051348;28;20469;-82
2021/10/27 15:42:49;;;;;;;3.20;2.67;;;14.80;1.00;;;;;;4986016;28;20460;-82
2021/10/27 15:45:38;;;;;;;7.57;3.37;;;14.70;1.00;;;;;;5054355;28;21265;-82
2021/10/27 15:50:54;;;;;;;6.73;3.23;;;14.60;1.00;;;;;;5048128;28;20889;-82
2021/10/27 15:53:19;;;;;;;9.87;5.93;;;14.50;1.00;;;;;;5050907;28;20819;-82
2021/10/27 15:55:45;;;;;;;5.43;3.00;;;14.50;1.00;;;;;;5049299;28;20444;-82
2021/10/27 15:58:11;;;;;;;8.37;3.90;;;14.40;1.00;;;;;;5051360;28;20270;-82
2021/10/27 16:00:39;;;;;;;5.00;3.00;;;14.40;1.00;;;;;;5058241;28;20447;-82
2021/10/27 16:03:06;;;;;;;11.43;4.47;;;14.40;1.00;;;;;;5049235;28;20557;-82
2021/10/27 16:05:39;;;;;;;5.30;2.93;;;14.30;1.00;;;;;;5053250;28;20475;-83
2021/10/27 16:08:11;;;;;;;10.37;3.33;;;14.30;1.00;;;;;;5053165;28;20543;-82
2021/10/27 16:10:37;;;;;;;7.43;3.30;;;14.20;1.00;;;;;;5053114;28;20455;-82
2021/10/27 16:13:04;;;;;;;10.87;3.93;;;14.30;1.00;;;;;;5054115;28;20605;-83
2021/10/27 16:18:03;;;;;;;5.43;2.90;;;14.20;1.00;;;;;;5048381;28;20458;-82
2021/10/27 16:20:29;;;;;;;6.00;2.90;;;14.20;1.00;;;;;;5049397;28;21041;-83
2021/10/27 16:22:55;;;;;;;7.03;3.20;;;14.10;1.00;;;;;;5049229;28;20537;-82
2021/10/27 16:25:20;;;;;;;5.57;2.80;;;14.10;1.00;;;;;;5045347;28;20275;-82
2021/10/27 16:27:47;;;;;;;6.50;2.80;;;14.00;1.00;;;;;;5049556;28;20870;-82
2021/10/27 16:30:12;;;;;;;6.23;2.70;;;14.00;1.00;;;;;;5054744;28;20179;-82
2021/10/27 16:32:38;;;;;;;6.80;3.07;;;14.00;1.00;;;;;;5056887;28;20941;-82
2021/10/27 16:35:04;;;;;;;9.23;3.27;;;13.90;1.00;;;;;;5057480;28;20194;-82
2021/10/27 16:37:30;;;;;;;3.30;2.60;;;13.90;1.00;;;;;;5047447;28;20719;-82
2021/10/27 16:39:56;;;;;;;4.60;3.40;;;13.90;1.00;;;;;;5047929;28;20445;-82
2021/10/27 16:42:24;;;;;;;5.03;2.70;;;13.80;1.00;;;;;;5054901;28;20441;-82
2021/10/27 16:44:50;;;;;;;6.73;3.93;;;13.80;1.00;;;;;;5054473;28;20954;-82
2021/10/27 16:47:16;;;;;;;8.20;3.20;;;13.80;1.00;;;;;;5048901;28;20483;-82
2021/10/27 16:49:42;;;;;;;10.23;3.27;;;13.80;1.00;;;;;;5045860;28;20197;-83
2021/10/27 16:52:09;;;;;;;3.70;3.10;;;13.70;1.00;;;;;;5049626;28;20199;-82
2021/10/27 16:54:35;;;;;;;5.43;3.30;;;13.70;1.00;;;;;;5046781;28;20448;-82
2021/10/27 16:57:01;;;;;;;8.60;3.30;;;13.60;1.00;;;;;;5044830;28;20568;-82
2021/10/27 16:59:27;;;;;;;6.83;3.70;;;13.60;1.00;;;;;;5046286;28;20448;-82
2021/10/27 17:01:52;;;;;;;5.50;3.03;;;13.60;1.00;;;;;;5042925;28;20839;-82
2021/10/27 17:04:18;;;;;;;7.50;2.93;;;13.50;1.00;;;;;;5036108;28;21276;-82
2021/10/27 17:06:44;;;;;;;8.43;3.53;;;13.50;1.00;;;;;;5041645;28;20217;-82
2021/10/27 17:09:10;;;;;;;6.60;3.93;;;13.40;1.00;;;;;;5035011;28;20642;-82
2021/10/27 17:11:36;;;;;;;7.60;3.70;;;13.40;1.00;;;;;;5039318;28;20210;-82
2021/10/27 17:14:02;;;;;;;4.80;3.20;;;13.40;1.00;;;;;;5049453;28;20558;-82
2021/10/27 17:16:31;;;;;;;7.30;3.53;;;13.40;1.00;;;;;;5051834;28;20197;-82
2021/10/27 17:18:57;;;;;;;6.93;3.60;;;13.40;1.00;;;;;;5052372;28;20547;-82
2021/10/27 17:21:23;;;;;;;7.73;3.83;;;13.40;1.00;;;;;;5055295;28;20449;-82
2021/10/27 17:23:53;;;;;;;7.67;3.73;;;13.40;1.00;;;;;;5045587;28;20210;-84
2021/10/27 17:26:19;;;;;;;6.00;3.60;;;13.30;1.00;;;;;;5052664;28;20440;-82
2021/10/27 17:28:45;;;;;;;3.60;2.90;;;13.30;1.00;;;;;;5047529;28;20472;-82
2021/10/27 17:31:11;;;;;;;4.93;3.33;;;13.30;1.00;;;;;;5043137;28;20615;-82
2021/10/27 17:33:37;;;;;;;6.27;3.60;;;13.30;1.00;;;;;;5043283;28;20798;-82
2021/10/27 17:36:05;;;;;;;5.80;3.83;;;13.30;1.00;;;;;;5046581;28;20456;-82
2021/10/27 17:38:32;;;;;;;5.03;3.60;;;13.20;1.00;;;;;;5050623;28;20320;-82
2021/10/27 17:40:58;;;;;;;9.70;4.20;;;13.20;1.00;;;;;;5055294;28;20447;-82
2021/10/27 17:43:24;;;;;;;6.03;3.87;;;13.20;1.00;;;;;;5051232;28;21037;-84
2021/10/27 17:45:51;;;;;;;7.20;3.70;;;13.10;1.00;;;;;;5050316;28;20190;-84